In Rescue
 
Open Full Screen Window  High Contrast Mode
July 23, 2019 12:24 AM CDT
Weather Information
Wind Direction
  ---
Wind Speed
  00 kt (0 mph)
Wind Gust
  00 kt (0 mph)
Altimeter
30.17 in
Visibility
7 SM
Temperature
12° C
54° F
Dewpoint
12° C
54° F
Humidity
100%
1hr Rain Fall
00.00 in.
24hr Rain Fall
00.06 in.
Sky Condition
Clear
VFR

METAR KELO 230524Z AUTO 00000KT 7SM CLR 12/12 A3017 RMK AO2

FAA Disclaimer: The data displayed is for advisory purposes only and is not to be used for flight planning or operations.